Ana Sayfa
METAR-TAF:

METAR-TAF

Havaalanları :

Wales, Alaska, Amerika Birleşik Devletleri

Enlem: 65-37-21N, Boylam: 168-05-42W, yükseklik: 7 m

Güncel hava durumu gözlemi

Rapor saat 21:56 UTC de 26 dakika önce yapıldı.
Rüzgar doğu/kuzeydoğudan 16 kt
Sıcaklık 1°C
Nem 93%
Basınç 1002 hPa
Görüş mesafesi: 16.1 km
4800 ft yükseklikte az bulutlu
8000 ft yükseklikte parçalı bulutlu
hafif yağmur

METAR: PAIW 212156Z AUTO 06016KT 10SM -RA FEW048 SCT080 01/00 A2958 RMK AO2 RAE04B49 SLP018 P0000 T00110000 FZRANO

Saat: 14:22 (22:22 UTC)


TAF: eksik

4.000'den fazla havaalanı için hava durumu gözlemleri ve tahminleri (METAR ve TAF raporları).

Kullanılabilir istasyonlar harita üzerinde sarı ve kırmızı noktalarla gösterilir.

İstasyonun adını görmek için fareyi noktanın üzerinde gezdirin.

Sonrasında hava gözlem ve tahminlerini görmek için tıklayın.

Haritayı değiştirmek için: yaklaştırmak için siyah artı işaretli yeşil düğmeye ve uzaklaştırmak için de eksi işaretli düğmeye hızla tıklayın; bitişik haritalar için yeşil okları kullanın.


METAR-TAF: